createdAt,value
2023-12-29T00:00:04.570Z,10.68
2023-12-29T00:01:03.654Z,10.72
2023-12-29T00:02:03.506Z,10.73
2023-12-29T00:03:03.543Z,10.72
2023-12-29T00:04:03.448Z,10.69
2023-12-29T00:05:03.209Z,10.69
2023-12-29T00:06:03.246Z,10.67
2023-12-29T00:07:04.390Z,10.68
2023-12-29T00:08:03.857Z,10.67
2023-12-29T00:09:02.733Z,10.68
2023-12-29T00:10:04.170Z,10.67
2023-12-29T00:11:02.715Z,10.66
2023-12-29T00:12:03.592Z,10.65
2023-12-29T00:13:03.573Z,10.64
2023-12-29T00:14:03.371Z,10.64
2023-12-29T00:15:03.954Z,10.66
2023-12-29T00:16:03.927Z,10.68
2023-12-29T00:17:03.948Z,10.68
2023-12-29T00:18:03.709Z,10.68
2023-12-29T00:19:03.985Z,10.66
2023-12-29T00:20:03.931Z,10.66
2023-12-29T00:21:08.669Z,10.67
2023-12-29T00:22:04.074Z,10.66
2023-12-29T00:23:03.321Z,10.65
2023-12-29T00:24:03.295Z,10.65
2023-12-29T00:25:03.693Z,10.66
2023-12-29T00:26:03.202Z,10.67
2023-12-29T00:27:03.492Z,10.68
2023-12-29T00:28:03.790Z,10.67
2023-12-29T00:29:02.916Z,10.67
2023-12-29T00:30:03.270Z,10.69
2023-12-29T00:31:06.596Z,10.68
2023-12-29T00:32:04.909Z,10.67
2023-12-29T00:33:03.254Z,10.72
2023-12-29T00:34:03.231Z,10.72
2023-12-29T00:35:03.100Z,10.71
2023-12-29T00:36:02.535Z,10.69
2023-12-29T00:37:03.877Z,10.68
2023-12-29T00:38:03.396Z,10.70
2023-12-29T00:39:03.454Z,10.71
2023-12-29T00:40:03.426Z,10.72
2023-12-29T00:41:03.165Z,10.76
2023-12-29T00:42:02.919Z,10.75
2023-12-29T00:43:02.872Z,10.74
2023-12-29T00:44:02.764Z,10.77
2023-12-29T00:45:04.047Z,10.78
2023-12-29T00:46:03.092Z,10.78
2023-12-29T00:47:03.072Z,10.77
2023-12-29T00:48:04.147Z,10.77
2023-12-29T00:49:03.403Z,10.76
2023-12-29T00:50:03.801Z,10.73
2023-12-29T00:51:03.624Z,10.72
2023-12-29T00:52:03.666Z,10.74
2023-12-29T00:53:03.497Z,10.76
2023-12-29T00:54:03.209Z,10.75
2023-12-29T00:55:03.894Z,10.75
2023-12-29T00:56:03.186Z,10.73
2023-12-29T00:57:02.905Z,10.73
2023-12-29T00:58:03.845Z,10.75
2023-12-29T00:59:02.752Z,10.77
2023-12-29T01:00:04.241Z,10.76
2023-12-29T01:01:04.002Z,10.78
2023-12-29T01:02:03.972Z,10.78
2023-12-29T01:03:03.417Z,10.77
2023-12-29T01:04:03.432Z,10.78
2023-12-29T01:05:03.601Z,10.77
2023-12-29T01:06:03.053Z,10.77
2023-12-29T01:07:02.988Z,10.77
2023-12-29T01:08:03.499Z,10.77
2023-12-29T01:09:03.521Z,10.78
2023-12-29T01:10:03.566Z,10.77
2023-12-29T01:11:03.158Z,10.76
2023-12-29T01:12:03.105Z,10.77
2023-12-29T01:13:02.910Z,10.78
2023-12-29T01:14:02.572Z,10.78
2023-12-29T01:15:04.026Z,10.77
2023-12-29T01:16:02.958Z,10.78
2023-12-29T01:17:03.052Z,10.79
2023-12-29T01:18:03.957Z,10.81
2023-12-29T01:19:03.293Z,10.80
2023-12-29T01:20:03.106Z,10.81
2023-12-29T01:21:02.986Z,10.80
2023-12-29T01:22:02.797Z,10.78
2023-12-29T01:23:03.606Z,10.78
2023-12-29T01:24:03.451Z,10.78
2023-12-29T01:25:03.520Z,10.78
2023-12-29T01:26:03.061Z,10.77
2023-12-29T01:27:03.057Z,10.78
2023-12-29T01:28:02.808Z,10.76
2023-12-29T01:29:02.690Z,10.77
2023-12-29T01:30:04.462Z,10.79
2023-12-29T01:31:03.635Z,10.80
2023-12-29T01:32:03.625Z,10.81
2023-12-29T01:33:03.284Z,10.81
2023-12-29T01:34:03.244Z,10.80
2023-12-29T01:35:03.106Z,10.81
2023-12-29T01:36:18.123Z,10.81
2023-12-29T01:37:03.174Z,10.82
2023-12-29T01:38:03.676Z,10.82
2023-12-29T01:39:02.880Z,10.82
2023-12-29T01:40:03.022Z,10.82
2023-12-29T01:41:02.669Z,10.81
2023-12-29T01:42:02.620Z,10.82
2023-12-29T01:43:03.708Z,10.82
2023-12-29T01:44:03.395Z,10.81
2023-12-29T01:45:03.333Z,10.80
2023-12-29T01:46:03.197Z,10.79
2023-12-29T01:47:03.296Z,10.79
2023-12-29T01:48:04.194Z,10.81
2023-12-29T01:49:03.211Z,10.82
2023-12-29T01:50:03.207Z,10.81
2023-12-29T01:51:02.864Z,10.80
2023-12-29T01:52:02.972Z,10.80
2023-12-29T01:53:03.593Z,10.80
2023-12-29T01:54:03.483Z,10.82
2023-12-29T01:55:03.732Z,10.82
2023-12-29T01:56:03.244Z,10.82
2023-12-29T01:57:03.036Z,10.82
2023-12-29T01:58:03.812Z,10.81
2023-12-29T01:59:19.348Z,10.81
2023-12-29T02:00:04.172Z,10.80
2023-12-29T02:01:03.843Z,10.77
2023-12-29T02:02:03.912Z,10.79
2023-12-29T02:03:03.213Z,10.79
2023-12-29T02:04:03.160Z,10.79
2023-12-29T02:05:03.568Z,10.80
2023-12-29T02:06:03.045Z,10.78
2023-12-29T02:07:02.807Z,10.76
2023-12-29T02:08:09.058Z,10.75
2023-12-29T02:09:03.304Z,10.77
2023-12-29T02:10:03.273Z,10.77
2023-12-29T02:11:03.012Z,10.79
2023-12-29T02:12:02.905Z,10.78
2023-12-29T02:13:02.770Z,10.80
2023-12-29T02:14:03.523Z,10.80
2023-12-29T02:15:03.568Z,10.80
2023-12-29T02:16:03.643Z,10.80
2023-12-29T02:17:03.312Z,10.80
2023-12-29T02:18:04.427Z,10.80
2023-12-29T02:19:02.973Z,10.80
2023-12-29T02:20:03.377Z,10.81
2023-12-29T02:21:02.703Z,10.80
2023-12-29T02:22:03.580Z,10.80
2023-12-29T02:23:03.247Z,10.82
2023-12-29T02:24:03.168Z,10.81
2023-12-29T02:25:03.248Z,10.81
2023-12-29T02:26:03.225Z,10.82
2023-12-29T02:27:02.874Z,10.80
2023-12-29T02:28:03.713Z,10.78
2023-12-29T02:29:02.740Z,10.78
2023-12-29T02:30:04.362Z,10.77
2023-12-29T02:31:03.562Z,10.79
2023-12-29T02:32:03.320Z,10.79
2023-12-29T02:33:03.531Z,10.79
2023-12-29T02:34:03.281Z,10.81
2023-12-29T02:35:03.498Z,10.81
2023-12-29T02:36:02.657Z,10.80
2023-12-29T02:37:03.758Z,10.80
2023-12-29T02:38:04.099Z,10.79
2023-12-29T02:39:03.389Z,10.80
2023-12-29T02:40:03.630Z,10.78
2023-12-29T02:41:02.964Z,10.78
2023-12-29T02:42:02.724Z,10.77
2023-12-29T02:43:02.743Z,10.77
2023-12-29T02:44:03.390Z,10.77
2023-12-29T02:45:03.741Z,10.77
2023-12-29T02:46:03.636Z,10.77
2023-12-29T02:47:03.740Z,10.77
2023-12-29T02:48:04.747Z,10.80
2023-12-29T02:49:03.416Z,10.80
2023-12-29T02:50:03.431Z,10.80
2023-12-29T02:51:03.023Z,10.79
2023-12-29T02:52:02.865Z,10.80
2023-12-29T02:53:03.506Z,10.82
2023-12-29T02:54:03.280Z,10.81
2023-12-29T02:55:03.658Z,10.82
2023-12-29T02:56:03.576Z,10.82
2023-12-29T02:57:03.160Z,10.84
2023-12-29T02:58:03.615Z,10.85
2023-12-29T02:59:02.681Z,10.84
2023-12-29T03:00:04.405Z,10.83
2023-12-29T03:01:03.346Z,10.83
2023-12-29T03:02:03.246Z,10.83
2023-12-29T03:03:02.773Z,10.84
2023-12-29T03:04:03.550Z,10.83
2023-12-29T03:05:03.604Z,10.83
2023-12-29T03:06:03.312Z,10.83
2023-12-29T03:07:03.096Z,10.81
2023-12-29T03:08:03.785Z,10.81
2023-12-29T03:09:02.660Z,10.82
2023-12-29T03:10:02.908Z,10.83
2023-12-29T03:11:03.572Z,10.82
2023-12-29T03:12:03.503Z,10.82
2023-12-29T03:13:03.275Z,10.82
2023-12-29T03:14:03.389Z,10.85
2023-12-29T03:15:03.806Z,10.86
2023-12-29T03:16:02.983Z,10.84
2023-12-29T03:17:03.115Z,10.84
2023-12-29T03:18:03.762Z,10.84
2023-12-29T03:19:03.028Z,10.84
2023-12-29T03:20:03.879Z,10.84
2023-12-29T03:21:03.596Z,10.84
2023-12-29T03:22:03.373Z,10.85
2023-12-29T03:23:03.145Z,10.84
2023-12-29T03:24:02.891Z,10.85
2023-12-29T03:25:02.834Z,10.85
2023-12-29T03:26:02.728Z,10.84
2023-12-29T03:27:03.323Z,10.85
2023-12-29T03:28:04.025Z,10.86
2023-12-29T03:29:02.918Z,10.89
2023-12-29T03:30:03.388Z,10.89
2023-12-29T03:31:03.051Z,10.88
2023-12-29T03:32:03.023Z,10.88
2023-12-29T03:33:07.119Z,10.87
2023-12-29T03:34:03.350Z,10.87
2023-12-29T03:35:03.610Z,10.86
2023-12-29T03:36:03.030Z,10.85
2023-12-29T03:37:02.803Z,10.85
2023-12-29T03:38:04.617Z,10.86
2023-12-29T03:39:03.525Z,10.88
2023-12-29T03:40:03.801Z,10.88
2023-12-29T03:41:03.376Z,10.88
2023-12-29T03:42:03.269Z,10.88
2023-12-29T03:43:03.205Z,10.88
2023-12-29T03:44:02.927Z,10.88
2023-12-29T03:45:03.106Z,10.87
2023-12-29T03:46:03.228Z,10.88
2023-12-29T03:47:03.239Z,10.89
2023-12-29T03:48:04.480Z,10.86
2023-12-29T03:49:03.475Z,10.85
2023-12-29T03:50:03.203Z,10.86
2023-12-29T03:51:02.876Z,10.86
2023-12-29T03:52:03.005Z,10.86
2023-12-29T03:53:03.667Z,10.85
2023-12-29T03:54:03.386Z,10.86
2023-12-29T03:55:03.466Z,10.85
2023-12-29T03:56:03.427Z,10.86
2023-12-29T03:57:03.180Z,10.86
2023-12-29T03:58:04.152Z,10.87
2023-12-29T03:59:02.577Z,10.88
2023-12-29T04:00:04.812Z,10.91
2023-12-29T04:01:02.947Z,10.94
2023-12-29T04:02:03.775Z,10.94
2023-12-29T04:03:02.508Z,10.94
2023-12-29T04:04:03.794Z,10.93
2023-12-29T04:05:03.876Z,10.93
2023-12-29T04:06:03.293Z,10.90
2023-12-29T04:07:03.282Z,10.90
2023-12-29T04:08:03.707Z,10.90
2023-12-29T04:09:02.968Z,10.89
2023-12-29T04:10:03.475Z,10.89
2023-12-29T04:11:03.229Z,10.92
2023-12-29T04:12:02.743Z,10.92
2023-12-29T04:13:02.761Z,10.91
2023-12-29T04:14:03.653Z,10.90
2023-12-29T04:15:04.615Z,10.91
2023-12-29T04:16:03.158Z,10.90
2023-12-29T04:17:03.058Z,10.88
2023-12-29T04:18:03.931Z,10.87
2023-12-29T04:19:03.108Z,10.86
2023-12-29T04:20:02.968Z,10.85
2023-12-29T04:21:02.858Z,10.86
2023-12-29T04:22:03.642Z,10.87
2023-12-29T04:23:03.364Z,10.87
2023-12-29T04:24:03.120Z,10.87
2023-12-29T04:25:03.301Z,10.88
2023-12-29T04:26:03.049Z,10.87
2023-12-29T04:27:02.942Z,10.87
2023-12-29T04:28:03.674Z,10.88
2023-12-29T04:29:02.725Z,10.89
2023-12-29T04:30:03.278Z,10.89
2023-12-29T04:31:03.389Z,10.90
2023-12-29T04:32:03.154Z,10.91
2023-12-29T04:33:02.934Z,10.89
2023-12-29T04:34:02.973Z,10.90
2023-12-29T04:35:02.948Z,10.91
2023-12-29T04:36:02.596Z,10.90
2023-12-29T04:37:03.605Z,10.89
2023-12-29T04:38:04.248Z,10.87
2023-12-29T04:39:03.178Z,10.87
2023-12-29T04:40:03.205Z,10.86
2023-12-29T04:41:02.886Z,10.88
2023-12-29T04:42:02.972Z,10.89
2023-12-29T04:43:02.796Z,10.90
2023-12-29T04:44:03.629Z,10.88
2023-12-29T04:45:03.896Z,10.88
2023-12-29T04:46:02.742Z,10.90
2023-12-29T04:47:03.991Z,10.88
2023-12-29T04:48:03.537Z,10.87
2023-12-29T04:49:02.680Z,10.87
2023-12-29T04:50:04.090Z,10.87
2023-12-29T04:51:03.583Z,10.86
2023-12-29T04:52:03.651Z,10.87
2023-12-29T04:53:03.363Z,10.87
2023-12-29T04:54:03.275Z,10.86
2023-12-29T04:55:03.444Z,10.86
2023-12-29T04:56:03.155Z,10.87
2023-12-29T04:57:02.908Z,10.87
2023-12-29T04:58:03.581Z,10.87
2023-12-29T04:59:02.571Z,10.87
2023-12-29T05:00:05.541Z,10.86
2023-12-29T05:01:03.003Z,10.87
2023-12-29T05:02:02.961Z,10.88
2023-12-29T05:03:02.757Z,10.90
2023-12-29T05:04:03.842Z,10.89
2023-12-29T05:05:03.638Z,10.88
2023-12-29T05:06:03.478Z,10.87
2023-12-29T05:07:03.200Z,10.89
2023-12-29T05:08:03.693Z,10.88
2023-12-29T05:09:02.927Z,10.87
2023-12-29T05:10:03.037Z,10.86
2023-12-29T05:11:03.040Z,10.86
2023-12-29T05:12:02.739Z,10.85
2023-12-29T05:13:02.651Z,10.85
2023-12-29T05:14:03.348Z,10.85
2023-12-29T05:15:03.669Z,10.85
2023-12-29T05:16:03.620Z,10.85
2023-12-29T05:17:03.625Z,10.87
2023-12-29T05:18:03.614Z,10.87
2023-12-29T05:19:02.770Z,10.87
2023-12-29T05:20:03.642Z,10.87
2023-12-29T05:21:03.650Z,10.86
2023-12-29T05:22:03.357Z,10.85
2023-12-29T05:23:03.175Z,10.86
2023-12-29T05:24:03.062Z,10.85
2023-12-29T05:25:03.513Z,10.85
2023-12-29T05:26:03.210Z,10.85
2023-12-29T05:27:03.117Z,10.85
2023-12-29T05:28:04.106Z,10.84
2023-12-29T05:29:02.776Z,10.84
2023-12-29T05:30:03.546Z,10.85
2023-12-29T05:31:04.161Z,10.86
2023-12-29T05:32:04.008Z,10.86
2023-12-29T05:33:03.285Z,10.85
2023-12-29T05:34:03.250Z,10.87
2023-12-29T05:35:03.317Z,10.86
2023-12-29T05:36:03.233Z,10.85
2023-12-29T05:37:03.116Z,10.84
2023-12-29T05:38:03.424Z,10.85
2023-12-29T05:39:02.731Z,10.87
2023-12-29T05:40:02.919Z,10.87
2023-12-29T05:41:03.521Z,10.87
2023-12-29T05:42:03.312Z,10.86
2023-12-29T05:43:03.249Z,10.88
2023-12-29T05:44:02.951Z,10.89
2023-12-29T05:45:03.296Z,10.89
2023-12-29T05:46:03.308Z,10.88
2023-12-29T05:47:03.222Z,10.86
2023-12-29T05:48:04.110Z,10.86
2023-12-29T05:49:03.193Z,10.89
2023-12-29T05:50:03.285Z,10.93
2023-12-29T05:51:02.944Z,10.96
2023-12-29T05:52:02.917Z,10.95
2023-12-29T05:53:02.733Z,10.93
2023-12-29T05:54:03.676Z,10.92
2023-12-29T05:55:04.152Z,10.92
2023-12-29T05:56:02.769Z,10.94
2023-12-29T05:57:02.944Z,10.96
2023-12-29T05:58:04.413Z,10.96
2023-12-29T05:59:03.524Z,11
2023-12-29T06:00:05.256Z,10.99
2023-12-29T06:01:03.814Z,10.97
2023-12-29T06:02:03.682Z,10.96
2023-12-29T06:03:02.776Z,10.96
2023-12-29T06:04:02.967Z,10.97
2023-12-29T06:05:03.034Z,10.99
2023-12-29T06:06:03.055Z,10.99
2023-12-29T06:07:03.031Z,10.98
2023-12-29T06:08:03.620Z,10.98
2023-12-29T06:09:03.613Z,10.98
2023-12-29T06:10:04.318Z,10.98
2023-12-29T06:11:02.854Z,11.00
2023-12-29T06:12:02.794Z,10.99
2023-12-29T06:13:03.750Z,10.98
2023-12-29T06:14:03.398Z,10.97
2023-12-29T06:15:03.866Z,10.98
2023-12-29T06:16:02.887Z,10.99
2023-12-29T06:17:03.043Z,10.98
2023-12-29T06:18:04.336Z,10.96
2023-12-29T06:19:03.251Z,10.93
2023-12-29T06:20:02.894Z,10.92
2023-12-29T06:21:02.819Z,10.91
2023-12-29T06:22:02.729Z,10.89
2023-12-29T06:23:03.598Z,10.89
2023-12-29T06:24:03.632Z,10.87
2023-12-29T06:25:03.936Z,10.86
2023-12-29T06:26:03.674Z,10.89
2023-12-29T06:27:03.494Z,10.87
2023-12-29T06:28:04.138Z,10.85
2023-12-29T06:29:03.441Z,10.85
2023-12-29T06:30:03.717Z,10.86
2023-12-29T06:31:03.064Z,10.84
2023-12-29T06:32:04.055Z,10.82
2023-12-29T06:33:03.340Z,10.82
2023-12-29T06:34:03.121Z,10.82
2023-12-29T06:35:03.062Z,10.85
2023-12-29T06:36:03.033Z,10.85
2023-12-29T06:37:03.022Z,10.84
2023-12-29T06:38:03.161Z,10.85
2023-12-29T06:39:02.825Z,10.85
2023-12-29T06:40:03.129Z,10.84
2023-12-29T06:41:03.013Z,10.84
2023-12-29T06:42:02.762Z,10.84
2023-12-29T06:43:03.973Z,10.84
2023-12-29T06:44:02.764Z,10.86
2023-12-29T06:45:04.138Z,10.87
2023-12-29T06:46:03.518Z,10.88
2023-12-29T06:47:03.444Z,10.89
2023-12-29T06:48:04.893Z,10.90
2023-12-29T06:49:04.167Z,10.89
2023-12-29T06:50:03.650Z,10.89
2023-12-29T06:51:03.500Z,10.90
2023-12-29T06:52:03.498Z,10.91
2023-12-29T06:53:03.435Z,10.93
2023-12-29T06:54:03.181Z,10.92
2023-12-29T06:55:03.358Z,10.89
2023-12-29T06:56:02.911Z,10.89
2023-12-29T06:57:02.861Z,10.89
2023-12-29T06:58:03.880Z,10.88
2023-12-29T06:59:03.839Z,10.87
2023-12-29T07:00:05.379Z,10.91
2023-12-29T07:01:03.126Z,10.92
2023-12-29T07:02:03.059Z,10.95
2023-12-29T07:03:02.934Z,10.91
2023-12-29T07:04:02.986Z,10.89
2023-12-29T07:05:03.089Z,10.89
2023-12-29T07:06:03.103Z,10.89
2023-12-29T07:07:03.443Z,10.88
2023-12-29T07:08:04.240Z,10.87
2023-12-29T07:09:03.092Z,10.87
2023-12-29T07:10:03.452Z,10.85
2023-12-29T07:11:03.112Z,10.84
2023-12-29T07:12:03.070Z,10.84
2023-12-29T07:13:03.263Z,10.86
2023-12-29T07:14:02.971Z,10.85
2023-12-29T07:15:03.421Z,10.86
2023-12-29T07:16:03.738Z,10.87
2023-12-29T07:17:03.968Z,10.85
2023-12-29T07:18:04.696Z,10.84
2023-12-29T07:19:03.292Z,10.83
2023-12-29T07:20:03.116Z,10.82
2023-12-29T07:21:03.097Z,10.83
2023-12-29T07:22:02.907Z,10.84
2023-12-29T07:23:02.865Z,10.84
2023-12-29T07:24:02.675Z,10.84
2023-12-29T07:25:03.822Z,10.84
2023-12-29T07:26:03.599Z,10.85
2023-12-29T07:27:03.620Z,10.86
2023-12-29T07:28:04.598Z,10.86
2023-12-29T07:29:03.398Z,10.85
2023-12-29T07:30:03.951Z,10.85
2023-12-29T07:31:03.271Z,10.85
2023-12-29T07:32:03.077Z,10.87
2023-12-29T07:33:03.442Z,10.87
2023-12-29T07:34:03.645Z,10.87
2023-12-29T07:35:03.703Z,10.86
2023-12-29T07:36:03.287Z,10.85
2023-12-29T07:37:03.285Z,10.85
2023-12-29T07:38:04.157Z,10.84
2023-12-29T07:39:03.977Z,10.84
2023-12-29T07:40:04.264Z,10.84
2023-12-29T07:41:03.683Z,10.84
2023-12-29T07:42:06.690Z,10.85
2023-12-29T07:43:03.673Z,10.85
2023-12-29T07:44:03.260Z,10.83
2023-12-29T07:45:03.606Z,10.83
2023-12-29T07:46:02.835Z,10.82
2023-12-29T07:47:04.011Z,10.80
2023-12-29T07:48:08.641Z,10.81
2023-12-29T07:49:03.663Z,10.81
2023-12-29T07:50:03.528Z,10.82
2023-12-29T07:51:03.312Z,10.81
2023-12-29T07:52:03.321Z,10.83
2023-12-29T07:53:03.135Z,10.85
2023-12-29T07:54:02.896Z,10.86
2023-12-29T07:55:03.273Z,10.89
2023-12-29T07:56:03.046Z,10.89
2023-12-29T07:57:02.775Z,10.90
2023-12-29T07:58:03.431Z,10.88
2023-12-29T07:59:03.596Z,10.87
2023-12-29T08:00:05.217Z,10.86
2023-12-29T08:01:02.994Z,10.86
2023-12-29T08:02:04.128Z,10.88
2023-12-29T08:03:03.067Z,10.88
2023-12-29T08:04:03.543Z,10.88
2023-12-29T08:05:03.382Z,10.88
2023-12-29T08:06:03.362Z,10.93
2023-12-29T08:07:03.327Z,10.94
2023-12-29T08:08:03.657Z,10.95
2023-12-29T08:09:03.226Z,10.94
2023-12-29T08:10:03.585Z,10.95
2023-12-29T08:11:03.499Z,10.95
2023-12-29T08:12:03.393Z,11.01
2023-12-29T08:13:03.451Z,11.07
2023-12-29T08:14:03.110Z,11.07
2023-12-29T08:15:03.716Z,11.06
2023-12-29T08:16:03.561Z,11.09
2023-12-29T08:17:04.062Z,11.11
2023-12-29T08:18:04.792Z,11.13
2023-12-29T08:19:03.810Z,11.17
2023-12-29T08:20:04.007Z,11.20
2023-12-29T08:21:03.529Z,11.21
2023-12-29T08:22:03.335Z,11.19
2023-12-29T08:23:03.053Z,11.15
2023-12-29T08:24:03.067Z,11.16
2023-12-29T08:25:03.327Z,11.18
2023-12-29T08:26:03.178Z,11.15
2023-12-29T08:27:03.094Z,11.15
2023-12-29T08:28:03.716Z,11.18
2023-12-29T08:29:02.903Z,11.20
2023-12-29T08:30:03.842Z,11.20
2023-12-29T08:31:04.279Z,11.25
2023-12-29T08:32:02.997Z,11.28
2023-12-29T08:33:02.981Z,11.28
2023-12-29T08:34:03.054Z,11.26
2023-12-29T08:35:03.385Z,11.28
2023-12-29T08:36:03.293Z,11.31
2023-12-29T08:37:03.456Z,11.36
2023-12-29T08:38:03.560Z,11.45
2023-12-29T08:39:03.382Z,11.41
2023-12-29T08:40:03.906Z,11.38
2023-12-29T08:41:03.300Z,11.34
2023-12-29T08:42:03.249Z,11.35
2023-12-29T08:43:03.215Z,11.35
2023-12-29T08:44:03.133Z,11.33
2023-12-29T08:45:03.418Z,11.35
2023-12-29T08:46:03.809Z,11.38
2023-12-29T08:47:03.920Z,11.35
2023-12-29T08:48:04.285Z,11.36
2023-12-29T08:49:03.665Z,11.36
2023-12-29T08:50:03.406Z,11.33
2023-12-29T08:51:03.317Z,11.31
2023-12-29T08:52:03.349Z,11.30
2023-12-29T08:53:03.310Z,11.31
2023-12-29T08:54:03.166Z,11.33
2023-12-29T08:55:03.368Z,11.32
2023-12-29T08:56:03.083Z,11.36
2023-12-29T08:57:03.037Z,11.36
2023-12-29T08:58:04.123Z,11.33
2023-12-29T08:59:02.746Z,11.36
2023-12-29T09:00:05.154Z,11.33
2023-12-29T09:01:02.986Z,11.34
2023-12-29T09:02:03.284Z,11.36
2023-12-29T09:03:03.498Z,11.36
2023-12-29T09:04:03.674Z,11.34
2023-12-29T09:05:03.264Z,11.32
2023-12-29T09:06:03.232Z,11.30
2023-12-29T09:07:03.352Z,11.33
2023-12-29T09:08:03.831Z,11.36
2023-12-29T09:09:03.380Z,11.37
2023-12-29T09:10:03.497Z,11.36
2023-12-29T09:11:03.309Z,11.34
2023-12-29T09:12:03.123Z,11.34
2023-12-29T09:13:03.091Z,11.32
2023-12-29T09:14:02.903Z,11.29
2023-12-29T09:15:03.322Z,11.29
2023-12-29T09:16:03.547Z,11.31
2023-12-29T09:17:03.612Z,11.31
2023-12-29T09:18:03.837Z,11.33
2023-12-29T09:19:22.205Z,11.34
2023-12-29T09:20:11.986Z,11.32
2023-12-29T09:21:03.200Z,11.31
2023-12-29T09:22:03.653Z,11.32
2023-12-29T09:23:04.046Z,11.29
2023-12-29T09:24:10.926Z,11.32
2023-12-29T09:25:04.221Z,11.32
2023-12-29T09:26:03.990Z,11.33
2023-12-29T09:27:03.765Z,11.35
2023-12-29T09:28:05.032Z,11.32
2023-12-29T09:29:03.352Z,11.32
2023-12-29T09:30:03.802Z,11.36
2023-12-29T09:31:03.423Z,11.39
2023-12-29T09:32:03.175Z,11.43
2023-12-29T09:33:03.557Z,11.44
2023-12-29T09:34:03.650Z,11.47
2023-12-29T09:35:03.616Z,11.51
2023-12-29T09:36:03.441Z,11.48
2023-12-29T09:37:03.767Z,11.47
2023-12-29T09:38:03.888Z,11.43
2023-12-29T09:39:03.396Z,11.50
2023-12-29T09:40:03.489Z,11.51
2023-12-29T09:41:03.212Z,11.52
2023-12-29T09:42:03.079Z,11.52
2023-12-29T09:43:03.050Z,11.48
2023-12-29T09:44:03.000Z,11.46
2023-12-29T09:45:03.485Z,11.48
2023-12-29T09:46:04.020Z,11.5
2023-12-29T09:47:03.976Z,11.50
2023-12-29T09:48:04.794Z,11.56
2023-12-29T09:49:03.562Z,11.56
2023-12-29T09:50:03.517Z,11.55
2023-12-29T09:51:03.373Z,11.56
2023-12-29T09:52:03.281Z,11.60
2023-12-29T09:53:03.035Z,11.67
2023-12-29T09:54:02.859Z,11.67
2023-12-29T09:55:03.284Z,11.60
2023-12-29T09:56:03.170Z,11.60
2023-12-29T09:57:03.063Z,11.59
2023-12-29T09:58:04.071Z,11.59
2023-12-29T09:59:03.759Z,11.62
2023-12-29T10:00:05.131Z,11.61
2023-12-29T10:01:03.676Z,11.56
2023-12-29T10:02:03.756Z,11.55
2023-12-29T10:03:03.429Z,11.55
2023-12-29T10:04:03.546Z,11.55
2023-12-29T10:05:03.712Z,11.56
2023-12-29T10:06:03.557Z,11.59
2023-12-29T10:07:03.490Z,11.58
2023-12-29T10:08:03.134Z,11.57
2023-12-29T10:09:03.132Z,11.57
2023-12-29T10:10:03.700Z,11.57
2023-12-29T10:11:03.271Z,11.58
2023-12-29T10:12:03.106Z,11.60
2023-12-29T10:13:03.631Z,11.60
2023-12-29T10:14:02.916Z,11.62
2023-12-29T10:15:03.438Z,11.65
2023-12-29T10:16:03.731Z,11.64
2023-12-29T10:17:04.056Z,11.66
2023-12-29T10:18:03.708Z,11.65
2023-12-29T10:19:03.565Z,11.65
2023-12-29T10:20:03.503Z,11.63
2023-12-29T10:21:03.193Z,11.61
2023-12-29T10:22:03.027Z,11.63
2023-12-29T10:23:03.261Z,11.63
2023-12-29T10:24:02.842Z,11.63
2023-12-29T10:25:03.191Z,11.63
2023-12-29T10:26:02.975Z,11.65
2023-12-29T10:27:02.779Z,11.63
2023-12-29T10:28:03.682Z,11.64
2023-12-29T10:29:03.372Z,11.63
2023-12-29T10:30:03.858Z,11.62
2023-12-29T10:31:03.480Z,11.66
2023-12-29T10:32:04.296Z,11.66
2023-12-29T10:33:04.114Z,11.67
2023-12-29T10:34:03.878Z,11.66
2023-12-29T10:35:03.543Z,11.71
2023-12-29T10:36:05.239Z,11.72
2023-12-29T10:37:03.596Z,11.69
2023-12-29T10:38:03.165Z,11.66
2023-12-29T10:39:03.311Z,11.68
2023-12-29T10:40:03.540Z,11.67
2023-12-29T10:41:03.138Z,11.69
2023-12-29T10:42:03.049Z,11.67
2023-12-29T10:43:03.907Z,11.68
2023-12-29T10:44:02.841Z,11.72
2023-12-29T10:45:03.262Z,11.73
2023-12-29T10:46:03.533Z,11.72
2023-12-29T10:47:03.530Z,11.74
2023-12-29T10:48:04.049Z,11.76
2023-12-29T10:49:03.636Z,11.78
2023-12-29T10:50:03.991Z,11.78
2023-12-29T10:51:03.380Z,11.77
2023-12-29T10:52:03.313Z,11.76
2023-12-29T10:53:03.213Z,11.76
2023-12-29T10:54:03.162Z,11.81
2023-12-29T10:55:03.350Z,11.82
2023-12-29T10:56:03.242Z,11.85
2023-12-29T10:57:03.111Z,11.82
2023-12-29T10:58:03.085Z,11.81
2023-12-29T10:59:02.847Z,11.84
2023-12-29T11:00:04.642Z,11.82
2023-12-29T11:01:03.823Z,11.78
2023-12-29T11:02:08.019Z,11.80
2023-12-29T11:03:04.134Z,11.84
2023-12-29T11:04:02.985Z,11.86
2023-12-29T11:05:03.090Z,11.93
2023-12-29T11:06:02.919Z,11.94
2023-12-29T11:07:02.921Z,11.96
2023-12-29T11:08:03.652Z,11.97
2023-12-29T11:09:03.469Z,11.93
2023-12-29T11:10:03.653Z,11.92
2023-12-29T11:11:03.468Z,11.91
2023-12-29T11:12:03.049Z,11.92
2023-12-29T11:13:04.020Z,11.91
2023-12-29T11:14:03.042Z,11.90
2023-12-29T11:15:03.360Z,11.93
2023-12-29T11:16:03.744Z,11.93
2023-12-29T11:17:03.793Z,11.95
2023-12-29T11:18:03.297Z,11.94
2023-12-29T11:19:03.302Z,11.95
2023-12-29T11:20:03.448Z,12.04
2023-12-29T11:21:03.092Z,12.06
2023-12-29T11:22:03.474Z,12.03
2023-12-29T11:23:03.917Z,12.04
2023-12-29T11:24:03.224Z,12.05
2023-12-29T11:25:03.337Z,12.06
2023-12-29T11:26:03.144Z,12.09
2023-12-29T11:27:03.073Z,12.11
2023-12-29T11:28:02.964Z,12.11
2023-12-29T11:29:02.882Z,12.12
2023-12-29T11:30:03.184Z,12.16
2023-12-29T11:31:03.148Z,12.18
2023-12-29T11:32:03.087Z,12.16
2023-12-29T11:33:04.669Z,12.16
2023-12-29T11:34:03.042Z,12.14
2023-12-29T11:35:02.995Z,12.12
2023-12-29T11:36:03.070Z,12.12
2023-12-29T11:37:02.888Z,12.13
2023-12-29T11:38:02.767Z,12.13
2023-12-29T11:39:02.639Z,12.09
2023-12-29T11:40:03.923Z,12.04
2023-12-29T11:41:03.575Z,12.04
2023-12-29T11:42:03.655Z,12.07
2023-12-29T11:43:04.705Z,12.11
2023-12-29T11:44:03.448Z,12.10
2023-12-29T11:45:03.564Z,12.12
2023-12-29T11:46:03.869Z,12.10
2023-12-29T11:47:05.176Z,12.14
2023-12-29T11:48:04.040Z,12.15
2023-12-29T11:49:03.534Z,12.16
2023-12-29T11:50:03.500Z,12.15
2023-12-29T11:51:03.367Z,12.12
2023-12-29T11:52:03.317Z,12.09
2023-12-29T11:53:04.323Z,12.07
2023-12-29T11:54:03.121Z,12.06
2023-12-29T11:55:03.339Z,12.07
2023-12-29T11:56:03.225Z,12.07
2023-12-29T11:57:03.061Z,12.07
2023-12-29T11:58:03.265Z,12.12
2023-12-29T11:59:02.965Z,12.14
2023-12-29T12:00:04.558Z,12.13
2023-12-29T12:01:03.831Z,12.11
2023-12-29T12:02:04.015Z,12.09
2023-12-29T12:03:04.157Z,12.06
2023-12-29T12:04:03.524Z,12.07
2023-12-29T12:05:03.479Z,12.10
2023-12-29T12:06:03.466Z,12.11
2023-12-29T12:07:03.243Z,12.13
2023-12-29T12:08:03.072Z,12.11
2023-12-29T12:09:02.892Z,12.07
2023-12-29T12:10:03.303Z,12.08
2023-12-29T12:11:03.023Z,12.07
2023-12-29T12:12:02.939Z,12.04
2023-12-29T12:13:04.188Z,12.01
2023-12-29T12:14:02.851Z,12.02
2023-12-29T12:15:03.316Z,12.02
2023-12-29T12:16:03.629Z,12.04
2023-12-29T12:17:03.756Z,12.05
2023-12-29T12:18:03.443Z,12.08
2023-12-29T12:19:03.547Z,12.12
2023-12-29T12:20:03.237Z,12.13
2023-12-29T12:21:03.139Z,12.14
2023-12-29T12:22:03.195Z,12.11
2023-12-29T12:23:04.179Z,12.06
2023-12-29T12:24:03.003Z,12.07
2023-12-29T12:25:03.199Z,12.06
2023-12-29T12:26:03.104Z,12.02
2023-12-29T12:27:02.979Z,12.05
2023-12-29T12:28:03.029Z,12.07
2023-12-29T12:29:02.734Z,12.06
2023-12-29T12:30:04.246Z,12.07
2023-12-29T12:31:03.329Z,12.06
2023-12-29T12:32:03.044Z,12.09
2023-12-29T12:33:04.473Z,12.08
2023-12-29T12:34:03.245Z,12.11
2023-12-29T12:35:03.331Z,12.16
2023-12-29T12:36:02.705Z,12.16
2023-12-29T12:37:02.892Z,12.20
2023-12-29T12:38:02.740Z,12.23
2023-12-29T12:39:02.703Z,12.24
2023-12-29T12:40:02.791Z,12.30
2023-12-29T12:41:03.574Z,12.32
2023-12-29T12:42:03.428Z,12.32
2023-12-29T12:43:04.123Z,12.33
2023-12-29T12:44:03.160Z,12.26
2023-12-29T12:45:03.474Z,12.24
2023-12-29T12:46:03.460Z,12.24
2023-12-29T12:47:03.559Z,12.26
2023-12-29T12:48:03.486Z,12.23
2023-12-29T12:49:03.401Z,12.22
2023-12-29T12:50:03.236Z,12.20
2023-12-29T12:51:03.174Z,12.21
2023-12-29T12:52:03.296Z,12.24